Time;durP1;ratioP1;P1;durP2;ratioP2;P2;SDS_P1;SDS_P2;PMS_P1;PMS_P2;Temp;Humidity;BMP_temperature;BMP_pressure;BME280_temperature;BME280_humidity;BME280_pressure;Samples;Min_cycle;Max_cycle;Signal;HPM_P1;HPM_P2
2021/05/28 00:00:07;;;;;;;12.13;6.55;;;;;;;18.70;70.22;100135.63;5033483;28;20044;-71
2021/05/28 00:02:32;;;;;;;9.70;6.32;;;;;;;18.69;69.88;100127.81;5033410;28;20029;-74
2021/05/28 00:04:58;;;;;;;10.15;6.90;;;;;;;18.54;69.96;100092.97;5029741;28;20403;-74
2021/05/28 00:07:23;;;;;;;10.32;6.43;;;;;;;18.70;69.84;100114.72;5015359;28;20033;-71
2021/05/28 00:09:49;;;;;;;9.98;8.02;;;;;;;18.65;69.83;100105.16;5015471;28;20038;-71
2021/05/28 00:12:14;;;;;;;11.57;7.05;;;;;;;18.77;70.10;100105.13;5026360;28;20062;-70
2021/05/28 00:14:40;;;;;;;9.32;6.88;;;;;;;18.89;69.71;100106.81;5033970;28;20072;-71
2021/05/28 00:17:06;;;;;;;13.60;7.32;;;;;;;18.83;69.71;100081.56;5034148;28;20507;-74
2021/05/28 00:19:31;;;;;;;14.43;7.85;;;;;;;18.83;70.38;100099.88;5033825;28;20046;-70
2021/05/28 00:21:56;;;;;;;15.80;7.22;;;;;;;18.69;69.98;100062.44;5034228;28;20068;-71
2021/05/28 00:24:22;;;;;;;16.90;7.57;;;;;;;18.89;70.12;100092.03;5033880;28;20053;-70
2021/05/28 00:26:48;;;;;;;16.30;7.30;;;;;;;18.86;69.69;100097.25;5032341;28;20044;-71
2021/05/28 00:29:13;;;;;;;13.73;6.85;;;;;;;18.68;69.61;100081.59;5033698;28;20127;-70
2021/05/28 00:31:39;;;;;;;10.30;7.00;;;;;;;18.72;69.59;100088.59;5034025;28;20021;-70
2021/05/28 00:34:04;;;;;;;12.20;7.22;;;;;;;18.41;69.37;100028.53;5032621;28;20057;-74
2021/05/28 00:36:30;;;;;;;11.55;7.43;;;;;;;18.69;69.34;100073.78;5033843;28;20518;-72
2021/05/28 00:38:56;;;;;;;15.75;6.70;;;;;;;18.66;69.25;100075.53;5033540;28;20484;-70
2021/05/28 00:41:21;;;;;;;9.90;7.70;;;;;;;18.62;70.00;100090.34;5033386;28;20033;-73
2021/05/28 00:43:47;;;;;;;10.25;7.65;;;;;;;18.27;71.09;100076.44;5033392;28;20025;-73
2021/05/28 00:46:12;;;;;;;9.43;7.10;;;;;;;18.26;71.51;100093.00;5033451;28;20364;-73
2021/05/28 00:48:38;;;;;;;12.50;7.90;;;;;;;18.23;71.08;100077.34;5011042;28;20381;-72
2021/05/28 00:51:04;;;;;;;11.15;7.40;;;;;;;18.20;71.03;100082.56;5014885;28;20507;-70
2021/05/28 00:53:31;;;;;;;11.43;7.68;;;;;;;18.07;70.93;100068.63;5015453;28;20116;-73
2021/05/28 00:55:58;;;;;;;9.68;7.78;;;;;;;17.74;71.28;100022.47;5024503;28;20030;-72
2021/05/28 00:58:24;;;;;;;8.43;7.10;;;;;;;18.05;71.33;100072.97;5014301;28;20029;-72
2021/05/28 01:00:50;;;;;;;8.50;7.40;;;;;;;18.01;71.31;100076.47;5013522;28;20026;-73
2021/05/28 01:03:15;;;;;;;10.18;7.60;;;;;;;17.89;71.41;100064.22;5012818;28;20041;-71
2021/05/28 01:05:41;;;;;;;9.88;7.35;;;;;;;17.90;71.29;100062.50;4995803;28;20025;-73
2021/05/28 01:08:07;;;;;;;9.35;7.28;;;;;;;17.88;71.16;100062.50;5020796;28;20034;-71
2021/05/28 01:10:32;;;;;;;11.05;7.50;;;;;;;17.98;71.01;100068.66;5032856;28;20032;-71
2021/05/28 01:13:07;;;;;;;8.70;7.47;;;;;;;18.07;70.69;100073.00;5032838;28;20026;-74
2021/05/28 01:15:33;;;;;;;9.48;7.05;;;;;;;18.07;70.66;100068.63;5032535;28;20037;-70
2021/05/28 01:17:58;;;;;;;8.13;7.13;;;;;;;18.17;70.25;100071.22;5014972;28;20083;-71
2021/05/28 01:20:24;;;;;;;9.35;6.45;;;;;;;18.22;70.01;100075.59;5013832;28;20030;-71
2021/05/28 01:22:52;;;;;;;10.27;6.93;;;;;;;18.14;69.76;100061.66;5028667;28;20027;-72
2021/05/28 01:25:18;;;;;;;10.40;7.05;;;;;;;18.19;70.08;100072.09;5032592;28;20522;-75
2021/05/28 01:27:44;;;;;;;10.25;6.97;;;;;;;18.19;69.63;100074.72;5030422;28;20029;-73
2021/05/28 01:30:10;;;;;;;10.77;6.72;;;;;;;18.02;69.28;100043.38;5032668;28;20033;-70
2021/05/28 01:32:36;;;;;;;8.75;7.22;;;;;;;18.17;69.83;100071.22;5032771;28;20537;-72
2021/05/28 01:35:02;;;;;;;10.20;6.78;;;;;;;18.08;69.67;100052.09;5015130;28;20022;-71
2021/05/28 01:37:28;;;;;;;11.15;6.90;;;;;;;18.02;69.72;100046.88;5032852;28;20128;-71
2021/05/28 01:39:53;;;;;;;8.90;6.68;;;;;;;17.98;69.84;100050.38;5032957;28;20496;-71
2021/05/28 01:42:19;;;;;;;12.35;7.28;;;;;;;18.10;69.30;100070.38;5032583;28;20403;-71
2021/05/28 01:44:45;;;;;;;8.32;7.10;;;;;;;18.12;68.97;100063.41;5014758;28;20040;-71
2021/05/28 01:47:12;;;;;;;8.57;6.95;;;;;;;18.08;68.96;100059.03;5032538;28;20026;-74
2021/05/28 01:49:40;;;;;;;9.60;7.82;;;;;;;18.06;69.03;100037.28;5032221;28;20103;-71
2021/05/28 01:52:07;;;;;;;9.48;7.22;;;;;;;17.50;68.03;99938.06;5032692;28;20030;-71
2021/05/28 01:54:40;;;;;;;8.70;6.80;;;;;;;18.12;68.46;100058.19;5014928;28;20084;-70
2021/05/28 01:57:08;;;;;;;14.18;7.68;;;;;;;18.12;68.04;100058.19;5014846;28;20436;-70
2021/05/28 01:59:34;;;;;;;8.82;7.32;;;;;;;18.12;67.99;100058.19;5032520;28;20025;-69
2021/05/28 02:01:59;;;;;;;10.98;7.32;;;;;;;17.93;67.96;100057.28;5032247;28;20079;-71
2021/05/28 02:04:25;;;;;;;11.32;8.02;;;;;;;18.00;67.95;100056.44;5032002;28;20026;-71
2021/05/28 02:06:52;;;;;;;12.80;7.93;;;;;;;17.86;68.34;100059.03;5032448;28;20476;-71
2021/05/28 02:09:18;;;;;;;9.80;7.93;;;;;;;17.84;68.88;100067.72;5014327;28;20562;-71
2021/05/28 02:11:44;;;;;;;10.18;7.30;;;;;;;17.75;68.13;100058.16;5014304;28;20022;-70
2021/05/28 02:14:10;;;;;;;16.75;8.18;;;;;;;17.76;68.37;100057.28;5031332;28;20033;-71
2021/05/28 02:16:37;;;;;;;15.32;7.82;;;;;;;17.74;67.92;100059.88;5032129;28;20043;-70
2021/05/28 02:19:04;;;;;;;8.73;7.32;;;;;;;17.50;67.99;100005.91;5032157;28;20055;-71
2021/05/28 02:21:30;;;;;;;11.35;6.90;;;;;;;17.83;68.04;100060.75;5032021;28;20072;-71
2021/05/28 02:23:57;;;;;;;10.25;7.07;;;;;;;17.81;67.89;100060.75;5032300;28;20080;-71
2021/05/28 02:26:25;;;;;;;9.80;6.97;;;;;;;17.81;67.93;100046.81;5032135;28;20029;-71
2021/05/28 02:28:51;;;;;;;13.77;7.53;;;;;;;17.40;66.42;99984.16;5032049;28;20480;-73
2021/05/28 02:31:16;;;;;;;11.40;8.35;;;;;;;17.56;66.78;100052.91;5031963;28;20080;-71
2021/05/28 02:33:42;;;;;;;10.52;7.82;;;;;;;17.43;66.90;100035.47;5032284;28;20503;-71
2021/05/28 02:36:08;;;;;;;12.70;8.80;;;;;;;17.50;67.32;100050.28;5032009;28;20033;-71
2021/05/28 02:38:34;;;;;;;11.02;7.60;;;;;;;17.44;67.45;100039.84;5032079;28;20029;-71
2021/05/28 02:41:00;;;;;;;10.90;7.88;;;;;;;17.35;67.59;100037.22;5031614;28;20578;-71
2021/05/28 02:43:25;;;;;;;10.82;7.40;;;;;;;17.44;67.52;100052.88;5031384;28;20036;-71
2021/05/28 02:45:52;;;;;;;12.00;7.68;;;;;;;17.00;67.16;99978.88;5013638;28;20037;-71
2021/05/28 02:48:19;;;;;;;12.30;7.20;;;;;;;17.21;67.23;100005.84;5031334;28;20044;-70
2021/05/28 02:50:45;;;;;;;11.02;7.43;;;;;;;17.32;68.25;100042.41;5031365;28;20476;-71
2021/05/28 02:53:10;;;;;;;8.43;7.05;;;;;;;17.46;68.41;100067.66;5031645;28;20104;-70
2021/05/28 02:55:37;;;;;;;12.77;7.82;;;;;;;17.24;67.47;100065.88;5031598;28;20132;-71
2021/05/28 02:58:03;;;;;;;13.80;8.52;;;;;;;16.85;68.64;100070.03;5031479;28;20108;-69
2021/05/28 03:00:28;;;;;;;12.50;8.93;;;;;;;16.57;68.81;100028.19;5029363;28;21509;-72
2021/05/28 03:02:54;;;;;;;10.80;8.10;;;;;;;16.80;68.86;100076.09;5031474;28;20113;-71
2021/05/28 03:05:19;;;;;;;13.98;8.35;;;;;;;16.85;68.84;100089.16;5031544;28;20491;-71
2021/05/28 03:07:45;;;;;;;11.85;8.65;;;;;;;16.80;68.78;100075.22;5031321;28;20060;-71
2021/05/28 03:10:13;;;;;;;12.85;7.90;;;;;;;16.92;68.69;100088.38;5031273;28;20448;-70
2021/05/28 03:12:38;;;;;;;12.45;7.65;;;;;;;17.04;68.29;100094.50;5031073;28;20439;-70
2021/05/28 03:15:05;;;;;;;17.02;8.55;;;;;;;16.57;67.74;100022.97;5031021;28;20032;-71
2021/05/28 03:17:31;;;;;;;10.75;8.52;;;;;;;16.95;67.45;100085.75;5031729;28;20412;-72
2021/05/28 03:23:17;;;;;;;14.15;8.07;;;;;;;16.78;68.32;100093.44;5096257;22;20049;-71
2021/05/28 03:25:43;;;;;;;10.77;8.25;;;;;;;16.22;68.84;100006.28;5075236;28;20111;-71
2021/05/28 03:28:12;;;;;;;12.73;8.18;;;;;;;16.82;69.51;100092.63;5075687;28;20025;-72
2021/05/28 03:30:38;;;;;;;15.27;8.23;;;;;;;16.44;69.73;100042.88;5075380;28;20030;-70
2021/05/28 03:33:07;;;;;;;10.88;7.95;;;;;;;16.81;70.33;100103.06;5075539;28;20103;-72
2021/05/28 03:35:32;;;;;;;13.02;9.05;;;;;;;16.79;70.58;100100.41;5075360;28;20024;-71
2021/05/28 03:37:58;;;;;;;13.25;8.35;;;;;;;16.84;71.33;100103.06;5075480;28;20025;-70
2021/05/28 03:40:24;;;;;;;10.65;8.63;;;;;;;16.56;71.08;100061.22;5075374;28;20410;-73
2021/05/28 03:42:50;;;;;;;10.98;8.70;;;;;;;16.85;71.16;100102.19;5074021;28;20020;-71
2021/05/28 03:45:30;;;;;;;18.77;8.85;;;;;;;16.85;71.17;100104.81;5074974;28;20029;-72
2021/05/28 03:47:56;;;;;;;11.68;8.38;;;;;;;16.88;71.24;100114.38;5075048;28;20025;-75
2021/05/28 03:50:21;;;;;;;16.02;9.50;;;;;;;16.79;71.27;100109.97;5072818;28;20131;-74
2021/05/28 03:52:47;;;;;;;11.98;8.90;;;;;;;16.70;71.43;100109.91;5075073;28;20021;-71
2021/05/28 03:55:12;;;;;;;13.82;9.18;;;;;;;16.52;72.19;100102.88;5074800;28;20020;-75
2021/05/28 03:57:39;;;;;;;12.93;9.10;;;;;;;16.18;72.79;100064.41;5074875;28;20029;-75
2021/05/28 04:00:05;;;;;;;14.13;9.52;;;;;;;16.34;74.06;100118.38;5074559;28;20035;-71
2021/05/28 04:02:30;;;;;;;12.95;9.77;;;;;;;16.40;73.76;100122.75;5074540;28;20036;-72
2021/05/28 04:04:56;;;;;;;13.88;9.32;;;;;;;16.45;74.21;100109.78;5074322;28;20467;-69
2021/05/28 04:07:24;;;;;;;14.57;9.63;;;;;;;16.24;73.95;100056.66;5075115;28;20033;-70
2021/05/28 04:09:49;;;;;;;12.32;10.10;;;;;;;16.63;73.90;100115.09;5074049;28;20490;-70
2021/05/28 04:12:15;;;;;;;12.77;8.90;;;;;;;16.64;73.51;100105.56;5074504;28;20025;-71
2021/05/28 04:14:41;;;;;;;12.75;9.82;;;;;;;16.81;73.33;100114.34;5074564;28;20028;-70
2021/05/28 04:17:06;;;;;;;15.20;8.90;;;;;;;16.91;73.27;100111.75;5074624;28;20023;-70
2021/05/28 04:19:32;;;;;;;15.77;9.43;;;;;;;16.92;72.75;100084.88;5074249;28;20029;-71
2021/05/28 04:21:57;;;;;;;15.18;9.23;;;;;;;16.83;72.75;100062.19;5073874;28;20139;-71
2021/05/28 04:24:23;;;;;;;13.00;9.07;;;;;;;17.21;72.67;100105.88;5074737;28;20035;-70
2021/05/28 04:26:49;;;;;;;16.67;10.40;;;;;;;17.34;72.40;100106.78;5074399;28;20029;-70
2021/05/28 04:29:15;;;;;;;18.15;8.93;;;;;;;17.32;73.04;100105.91;5074375;28;20024;-74
2021/05/28 04:31:41;;;;;;;15.98;9.43;;;;;;;17.22;73.31;100107.63;5074180;28;20032;-74
2021/05/28 04:34:06;;;;;;;16.25;10.50;;;;;;;17.15;73.99;100095.41;5074007;28;20024;-70
2021/05/28 04:36:32;;;;;;;12.65;9.00;;;;;;;17.16;74.63;100106.69;5073324;28;20058;-70
2021/05/28 04:38:57;;;;;;;13.43;9.75;;;;;;;17.24;74.94;100098.03;5074157;28;20024;-70
2021/05/28 04:41:23;;;;;;;11.48;9.15;;;;;;;17.17;75.45;100083.25;5074086;28;20405;-71
2021/05/28 04:43:48;;;;;;;20.52;9.00;;;;;;;16.98;74.53;100033.63;5074119;28;20017;-72
2021/05/28 04:46:14;;;;;;;11.75;8.63;;;;;;;17.52;74.21;100099.88;5073855;28;20028;-74
2021/05/28 04:48:39;;;;;;;17.20;8.70;;;;;;;17.61;73.25;100087.72;5073807;28;20457;-75
2021/05/28 04:51:05;;;;;;;10.52;7.95;;;;;;;17.78;72.76;100102.53;5073750;28;20043;-74
2021/05/28 04:53:30;;;;;;;11.07;7.78;;;;;;;17.85;72.82;100093.84;5073964;28;20032;-74
2021/05/28 04:55:56;;;;;;;12.48;7.78;;;;;;;18.14;71.52;100113.03;5055885;28;20031;-70
2021/05/28 04:58:21;;;;;;;13.00;7.88;;;;;;;18.02;72.51;100074.72;5073770;28;20021;-70
2021/05/28 05:00:48;;;;;;;12.85;7.55;;;;;;;18.18;72.07;100105.22;5072400;28;20503;-70
2021/05/28 05:03:14;;;;;;;9.30;7.32;;;;;;;18.23;71.63;100108.69;5073553;28;20024;-70
2021/05/28 05:05:40;;;;;;;10.43;7.10;;;;;;;18.31;70.85;100107.81;5073755;28;20040;-72
2021/05/28 05:08:05;;;;;;;11.90;7.00;;;;;;;18.24;71.50;100094.75;5072885;28;20016;-71
2021/05/28 05:10:31;;;;;;;10.35;7.40;;;;;;;18.34;71.62;100111.28;5072557;28;20525;-72
2021/05/28 05:12:56;;;;;;;13.27;7.28;;;;;;;18.22;70.41;100087.78;5073187;28;20491;-70
2021/05/28 05:15:22;;;;;;;9.82;7.07;;;;;;;17.78;70.41;100005.91;5062428;28;20503;-69
2021/05/28 05:17:47;;;;;;;9.43;7.07;;;;;;;18.44;72.17;100106.91;5063155;28;20021;-71
2021/05/28 05:20:13;;;;;;;9.80;6.40;;;;;;;18.46;70.63;100107.81;5061484;28;20502;-74
2021/05/28 05:22:39;;;;;;;12.48;6.45;;;;;;;18.46;69.99;100094.72;5062769;28;20460;-71
2021/05/28 05:25:05;;;;;;;11.80;7.57;;;;;;;18.58;70.82;100102.56;5063090;28;20163;-70
2021/05/28 05:27:31;;;;;;;10.63;7.53;;;;;;;18.69;69.99;100096.41;5067022;28;20123;-71
2021/05/28 05:29:56;;;;;;;10.27;7.30;;;;;;;18.76;69.72;100091.16;5072337;28;20107;-70
2021/05/28 05:32:22;;;;;;;12.90;8.13;;;;;;;18.85;70.83;100098.09;5072734;28;20055;-69
2021/05/28 05:34:47;;;;;;;8.88;7.03;;;;;;;18.89;70.20;100072.81;5054002;28;20137;-73
2021/05/28 05:37:13;;;;;;;14.70;7.47;;;;;;;18.72;69.83;100031.06;5073147;28;20035;-71
2021/05/28 05:39:38;;;;;;;14.27;7.70;;;;;;;19.16;69.57;100094.56;5072475;28;20025;-71
2021/05/28 05:42:04;;;;;;;9.27;7.07;;;;;;;18.97;69.28;100047.53;5072465;28;20035;-71
2021/05/28 05:44:30;;;;;;;8.60;7.00;;;;;;;18.86;68.55;100007.47;5071307;28;20047;-71
2021/05/28 05:49:31;;;;;;;14.45;7.22;;;;;;;19.38;68.33;100080.47;5084040;22;20056;-73
2021/05/28 05:51:56;;;;;;;12.35;6.97;;;;;;;19.52;66.77;100090.88;5064078;28;20028;-72
2021/05/28 05:54:22;;;;;;;11.50;6.90;;;;;;;19.62;67.54;100085.59;5062983;28;20025;-71
2021/05/28 05:56:47;;;;;;;9.63;7.50;;;;;;;19.59;68.00;100081.25;5060717;28;20021;-73
2021/05/28 05:59:13;;;;;;;12.07;6.45;;;;;;;19.63;68.24;100076.88;5058596;28;20032;-70
2021/05/28 06:01:39;;;;;;;13.77;7.47;;;;;;;19.01;67.43;99972.53;5055648;28;20521;-72
2021/05/28 06:04:05;;;;;;;12.85;7.95;;;;;;;19.58;68.76;100078.63;5051287;28;20155;-69
2021/05/28 06:06:30;;;;;;;11.35;7.10;;;;;;;19.47;69.67;100082.19;5055031;28;20099;-71
2021/05/28 06:08:56;;;;;;;16.10;7.53;;;;;;;19.51;67.74;100089.13;5069885;28;20124;-72
2021/05/28 06:11:21;;;;;;;10.68;7.85;;;;;;;19.27;69.92;100070.97;5071952;28;20428;-72
2021/05/28 06:13:47;;;;;;;11.57;8.07;;;;;;;19.24;70.67;100100.66;5071866;28;20032;-72
2021/05/28 06:16:13;;;;;;;12.82;7.88;;;;;;;19.03;70.96;100114.69;5071646;28;20020;-72
2021/05/28 06:18:38;;;;;;;12.27;7.18;;;;;;;18.87;71.68;100096.38;5054297;28;20094;-72
2021/05/28 06:21:06;;;;;;;11.52;7.30;;;;;;;18.85;72.14;100092.03;5072157;28;20099;-72
2021/05/28 06:23:32;;;;;;;12.63;7.13;;;;;;;18.85;73.21;100105.09;5054432;28;20032;-72
2021/05/28 06:25:58;;;;;;;11.13;6.28;;;;;;;18.98;72.87;100104.22;5072320;28;20020;-72
2021/05/28 06:28:23;;;;;;;10.63;7.30;;;;;;;19.07;71.88;100113.78;5071960;28;20498;-70
2021/05/28 06:30:49;;;;;;;14.40;7.63;;;;;;;19.09;71.80;100101.56;5069079;28;20071;-73
2021/05/28 06:33:14;;;;;;;10.50;6.72;;;;;;;19.10;72.42;100113.75;5052242;28;20029;-72
2021/05/28 06:35:40;;;;;;;11.68;6.20;;;;;;;19.17;72.73;100122.47;5052074;28;20161;-70
2021/05/28 06:38:09;;;;;;;10.80;6.32;;;;;;;19.15;70.55;100126.84;5052063;28;20025;-72
2021/05/28 06:40:37;;;;;;;11.20;6.05;;;;;;;19.08;71.37;100123.38;5052044;28;20021;-70
2021/05/28 06:43:02;;;;;;;8.20;6.55;;;;;;;18.98;73.11;100126.88;5051972;28;20186;-74
2021/05/28 06:45:28;;;;;;;9.90;6.95;;;;;;;18.78;74.11;100127.78;5053760;28;20091;-72
2021/05/28 06:47:53;;;;;;;8.43;6.85;;;;;;;18.73;74.73;100137.41;5053735;28;20045;-72
2021/05/28 06:50:19;;;;;;;9.10;6.88;;;;;;;18.64;73.95;100137.41;5063988;28;20036;-72
2021/05/28 06:52:46;;;;;;;12.32;6.90;;;;;;;18.66;74.44;100136.53;5070442;28;20028;-72
2021/05/28 06:55:13;;;;;;;8.65;6.57;;;;;;;18.76;74.58;100129.53;5071672;28;20024;-72
2021/05/28 06:57:38;;;;;;;8.10;7.05;;;;;;;18.64;73.60;100125.22;5069997;28;20031;-70
2021/05/28 07:00:09;;;;;;;10.18;7.38;;;;;;;18.70;72.97;100130.41;5070958;28;20033;-72
2021/05/28 07:02:36;;;;;;;7.72;6.93;;;;;;;17.61;72.43;99930.25;5068407;28;20066;-73
2021/05/28 07:05:03;;;;;;;8.30;6.50;;;;;;;18.48;70.79;100056.41;5052196;28;20033;-72
2021/05/28 07:07:29;;;;;;;7.10;5.90;;;;;;;18.85;70.85;100112.94;5050920;28;20029;-70
2021/05/28 07:09:54;;;;;;;11.13;6.90;;;;;;;18.56;70.08;100059.84;5051244;28;20079;-72
2021/05/28 07:12:20;;;;;;;11.48;6.25;;;;;;;18.68;70.85;100064.19;5051194;28;20024;-72
2021/05/28 07:14:45;;;;;;;9.27;6.57;;;;;;;18.92;71.12;100115.56;5051500;28;20100;-70
2021/05/28 07:17:11;;;;;;;9.20;6.70;;;;;;;18.92;72.09;100126.03;5051135;28;20029;-73
2021/05/28 07:19:36;;;;;;;9.07;6.80;;;;;;;18.91;72.89;100128.66;5051267;28;20029;-72
2021/05/28 07:22:02;;;;;;;11.13;7.10;;;;;;;18.52;72.42;100065.09;5067035;28;20033;-72
2021/05/28 07:24:28;;;;;;;11.23;6.47;;;;;;;18.82;72.42;100111.22;5071263;28;20024;-70
2021/05/28 07:26:54;;;;;;;7.07;5.82;;;;;;;18.58;71.19;100076.41;5071127;28;20029;-72
2021/05/28 07:29:19;;;;;;;9.85;6.80;;;;;;;18.86;71.13;100131.25;5070920;28;20024;-72
2021/05/28 07:31:45;;;;;;;10.50;6.68;;;;;;;18.85;71.50;100126.03;5071287;28;20031;-73
2021/05/28 07:34:10;;;;;;;13.45;6.38;;;;;;;18.97;71.91;100125.16;5071054;28;20025;-72
2021/05/28 07:36:36;;;;;;;9.45;5.75;;;;;;;19.08;70.19;100139.94;5071169;28;20033;-73
2021/05/28 07:39:02;;;;;;;8.77;5.78;;;;;;;19.05;70.32;100131.22;5071031;28;20052;-72
2021/05/28 07:41:27;;;;;;;9.25;5.53;;;;;;;19.13;70.20;100139.94;5070886;28;20029;-72
2021/05/28 07:43:53;;;;;;;11.48;5.93;;;;;;;19.19;70.32;100144.25;5071240;28;20520;-69
2021/05/28 07:46:18;;;;;;;10.13;5.95;;;;;;;19.20;70.05;100139.03;5070953;28;20028;-70
2021/05/28 07:48:44;;;;;;;9.80;5.50;;;;;;;19.28;69.97;100139.00;5071138;28;20059;-70
2021/05/28 07:51:10;;;;;;;8.98;5.78;;;;;;;18.97;70.08;100091.16;5071112;28;20499;-70
2021/05/28 07:53:35;;;;;;;8.23;5.30;;;;;;;19.19;69.73;100142.53;5071016;28;20031;-70
2021/05/28 07:56:05;;;;;;;5.90;5.13;;;;;;;19.20;69.32;100136.41;5070679;28;20490;-70
2021/05/28 07:58:31;;;;;;;;;;;;;;;19.33;70.72;100137.22;5071483;28;20025;-70
2021/05/28 08:00:56;;;;;;;6.57;5.55;;;;;;;19.40;69.94;100128.47;5070843;28;19912;-70
2021/05/28 08:03:22;;;;;;;6.25;5.28;;;;;;;19.49;69.16;100124.94;5070992;28;20103;-69
2021/05/28 08:05:50;;;;;;;8.18;5.72;;;;;;;19.06;68.68;100046.63;5071012;28;20025;-70
2021/05/28 08:08:17;;;;;;;9.55;5.43;;;;;;;19.59;67.67;100128.38;5070751;28;20040;-69
2021/05/28 08:10:43;;;;;;;6.05;4.90;;;;;;;19.59;67.72;100128.38;5070648;28;20043;-70
2021/05/28 08:13:08;;;;;;;10.43;6.40;;;;;;;19.34;67.36;100065.69;5074645;28;20033;-70
2021/05/28 08:15:34;;;;;;;8.38;5.38;;;;;;;19.76;67.75;100120.41;5074347;28;20463;-70
2021/05/28 08:18:00;;;;;;;12.45;6.28;;;;;;;19.78;68.68;100107.31;5072879;28;20025;-70
2021/05/28 08:20:26;;;;;;;7.22;5.60;;;;;;;19.87;67.68;100121.22;5073879;28;20083;-70
2021/05/28 08:22:52;;;;;;;7.75;5.40;;;;;;;19.87;67.88;100121.22;5073447;28;20070;-68
2021/05/28 08:25:18;;;;;;;8.30;5.30;;;;;;;19.53;66.90;100065.56;5073882;28;20028;-70
2021/05/28 08:27:44;;;;;;;6.57;5.13;;;;;;;19.83;67.13;100116.03;5068635;28;20029;-69
2021/05/28 08:30:10;;;;;;;8.55;5.35;;;;;;;19.91;66.79;100119.47;5053786;28;20036;-70
2021/05/28 08:32:36;;;;;;;11.52;6.10;;;;;;;19.73;66.56;100068.06;5064287;28;20975;-69
2021/05/28 08:35:02;;;;;;;8.35;5.95;;;;;;;20.22;66.31;100126.22;5074064;28;20024;-69
2021/05/28 08:37:28;;;;;;;6.80;5.55;;;;;;;20.25;66.20;100113.09;5072536;28;20032;-70
2021/05/28 08:39:53;;;;;;;6.95;5.32;;;;;;;20.32;64.48;100113.00;5073648;28;20035;-73
2021/05/28 08:42:20;;;;;;;10.73;5.55;;;;;;;20.52;64.22;100112.84;5073870;28;20112;-72
2021/05/28 08:44:48;;;;;;;8.90;5.90;;;;;;;20.67;63.28;100110.94;5072153;28;20094;-70
2021/05/28 08:47:15;;;;;;;7.47;6.30;;;;;;;20.66;63.80;100088.22;5073365;28;20032;-71
2021/05/28 08:49:48;;;;;;;12.63;4.90;;;;;;;21.03;60.96;100102.72;5073269;28;20044;-70
2021/05/28 08:52:15;;;;;;;9.98;5.57;;;;;;;21.23;58.94;100105.94;5073861;28;20473;-70
2021/05/28 08:54:41;;;;;;;6.97;3.95;;;;;;;21.26;57.86;100108.56;5073690;28;20051;-74
2021/05/28 08:57:06;;;;;;;8.15;4.40;;;;;;;20.94;57.90;100043.34;5073727;28;20470;-71
2021/05/28 08:59:32;;;;;;;8.43;4.47;;;;;;;21.46;58.73;100096.91;5073362;28;20024;-70
2021/05/28 09:01:57;;;;;;;7.20;4.28;;;;;;;21.52;57.55;100106.44;5072371;28;20028;-71
2021/05/28 09:04:23;;;;;;;8.20;3.97;;;;;;;21.63;56.57;100102.84;5073190;28;20021;-69
2021/05/28 09:06:49;;;;;;;6.55;4.15;;;;;;;21.88;55.50;100096.31;5072315;28;20036;-75
2021/05/28 09:09:19;;;;;;;7.93;3.65;;;;;;;22.16;55.37;100080.97;5072172;28;20058;-70
2021/05/28 09:11:58;;;;;;;9.48;3.50;;;;;;;22.42;52.33;100083.16;5070211;28;20016;-69
2021/05/28 09:14:40;;;;;;;6.45;3.00;;;;;;;22.46;52.27;100070.84;5072373;28;20111;-73
2021/05/28 09:17:09;;;;;;;4.45;2.30;;;;;;;22.65;50.23;100081.88;5072804;28;20412;-70
2021/05/28 09:19:36;;;;;;;5.65;2.88;;;;;;;22.62;50.93;100088.06;5071345;28;20035;-72
2021/05/28 09:22:06;;;;;;;4.13;2.92;;;;;;;22.65;48.25;100079.22;5070875;28;20387;-69
2021/05/28 09:24:36;;;;;;;6.90;2.50;;;;;;;22.70;47.67;100077.38;5064114;28;20483;-70
2021/05/28 09:27:24;;;;;;;6.75;2.60;;;;;;;22.89;49.92;100063.84;5052822;28;20454;-70
2021/05/28 09:30:17;;;;;;;6.83;2.40;;;;;;;23.04;45.07;100065.28;5056803;28;20025;-71
2021/05/28 09:32:46;;;;;;;8.52;2.75;;;;;;;23.08;47.95;100067.84;5061658;28;20028;-69
2021/05/28 09:35:14;;;;;;;6.75;2.00;;;;;;;22.76;45.05;100000.09;5062138;28;20033;-70
2021/05/28 09:37:48;;;;;;;6.90;2.17;;;;;;;23.15;44.95;100065.09;5061987;28;20555;-70
2021/05/28 09:40:22;;;;;;;3.60;1.73;;;;;;;22.87;43.53;100018.28;5061553;28;20479;-70
2021/05/28 09:43:21;;;;;;;4.22;2.22;;;;;;;23.03;45.39;100056.53;5068376;28;20035;-70
2021/05/28 09:45:48;;;;;;;7.10;2.50;;;;;;;22.94;46.17;100043.56;4970726;28;20035;-69
2021/05/28 09:48:13;;;;;;;3.67;2.30;;;;;;;23.01;47.63;100053.06;4960140;28;20055;-72
2021/05/28 09:50:49;;;;;;;8.77;2.22;;;;;;;23.05;45.09;100060.03;4958710;28;20087;-72
2021/05/28 09:53:42;;;;;;;5.30;2.10;;;;;;;23.15;44.54;100057.19;4962601;28;20035;-71
2021/05/28 09:56:30;;;;;;;6.07;2.33;;;;;;;23.19;45.60;100059.75;4960949;28;20524;-71
2021/05/28 09:59:01;;;;;;;6.00;2.28;;;;;;;23.31;46.07;100050.69;4963401;28;20046;-70
2021/05/28 10:01:29;;;;;;;4.63;2.03;;;;;;;23.02;44.67;99989.00;4965733;28;20526;-72
2021/05/28 10:04:16;;;;;;;5.40;2.08;;;;;;;23.40;44.04;100050.50;4962974;28;20039;-72
2021/05/28 10:06:42;;;;;;;7.60;2.42;;;;;;;23.50;47.20;100047.66;4965019;28;20149;-71
2021/05/28 10:09:11;;;;;;;6.03;2.20;;;;;;;23.52;44.89;100040.59;4965436;28;20564;-70
2021/05/28 10:11:38;;;;;;;6.53;2.30;;;;;;;23.76;43.55;100033.84;4948982;28;20030;-71
2021/05/28 10:14:06;;;;;;;5.90;2.00;;;;;;;23.98;42.94;100043.91;4965611;28;20023;-73
2021/05/28 10:16:31;;;;;;;4.45;2.15;;;;;;;24.10;42.30;100037.44;4964933;28;20078;-72
2021/05/28 10:18:58;;;;;;;4.57;2.53;;;;;;;24.17;44.32;100033.72;4965028;28;20030;-70
2021/05/28 10:21:44;;;;;;;6.93;2.13;;;;;;;24.50;42.53;100039.00;4971637;28;20386;-69
2021/05/28 10:24:10;;;;;;;3.88;1.85;;;;;;;24.29;43.40;100036.06;5023547;28;20124;-70
2021/05/28 10:26:36;;;;;;;4.43;2.00;;;;;;;24.27;45.05;100022.03;5024476;28;20128;-70
2021/05/28 10:29:02;;;;;;;3.95;1.88;;;;;;;24.30;42.54;100026.34;5019323;28;20571;-72
2021/05/28 10:32:09;;;;;;;6.22;1.98;;;;;;;24.18;42.05;100038.09;5015861;28;20060;-72
2021/05/28 10:35:04;;;;;;;2.83;1.42;;;;;;;23.98;41.75;100036.00;4970313;28;20047;-71
2021/05/28 10:37:30;;;;;;;3.40;1.50;;;;;;;23.86;42.28;100027.47;4953080;28;20322;-72
2021/05/28 10:39:56;;;;;;;2.92;1.45;;;;;;;23.93;41.93;100024.69;4971944;28;20122;-71
2021/05/28 10:42:21;;;;;;;5.90;1.98;;;;;;;23.93;43.65;100019.44;4953964;28;20081;-72
2021/05/28 10:44:47;;;;;;;4.45;1.90;;;;;;;23.94;44.44;100014.09;4969198;28;20137;-70
2021/05/28 10:47:12;;;;;;;3.45;1.90;;;;;;;23.95;42.74;100021.13;4972786;28;20030;-71
2021/05/28 10:49:45;;;;;;;4.40;1.88;;;;;;;24.05;43.37;100005.91;4972000;28;20046;-70
2021/05/28 10:52:25;;;;;;;4.25;2.10;;;;;;;24.19;46.22;100011.69;4966307;28;20043;-73
2021/05/28 10:54:56;;;;;;;3.20;2.17;;;;;;;24.34;45.86;100010.41;4976891;28;20042;-69
2021/05/28 10:57:23;;;;;;;3.05;1.95;;;;;;;24.51;46.18;100004.66;4989854;28;20603;-71
2021/05/28 10:59:51;;;;;;;7.07;2.30;;;;;;;24.11;44.27;99949.50;4989670;28;20097;-70
2021/05/28 11:02:43;;;;;;;2.40;2.10;;;;;;;24.89;42.64;100012.41;4989514;28;20496;-72
2021/05/28 11:05:09;;;;;;;4.50;2.13;;;;;;;25.23;45.04;100010.53;4989147;28;20049;-71
2021/05/28 11:07:35;;;;;;;3.15;1.63;;;;;;;25.43;40.52;99988.78;4993935;28;20496;-72
2021/05/28 11:10:24;;;;;;;3.83;1.95;;;;;;;25.68;42.59;100010.84;5004220;28;20036;-71
2021/05/28 11:12:51;;;;;;;5.82;1.98;;;;;;;25.89;40.05;100002.25;5061002;28;20028;-73
2021/05/28 11:15:28;;;;;;;2.72;1.70;;;;;;;25.77;39.85;99982.38;5069062;28;20033;-70
2021/05/28 11:18:04;;;;;;;3.67;1.70;;;;;;;25.84;41.00;99950.38;5061780;28;20116;-73
2021/05/28 11:20:36;;;;;;;3.63;1.40;;;;;;;26.27;37.94;100008.88;5064235;28;20027;-70
2021/05/28 11:23:08;;;;;;;6.50;1.55;;;;;;;26.12;36.05;100012.94;5061173;28;20495;-69
2021/05/28 11:25:48;;;;;;;3.90;1.60;;;;;;;25.95;38.75;100005.53;5059783;28;20025;-71
2021/05/28 11:28:14;;;;;;;2.92;1.63;;;;;;;25.26;36.72;100013.06;5060000;28;20103;-70